Time;durP1;ratioP1;P1;durP2;ratioP2;P2;SDS_P1;SDS_P2;PMS_P1;PMS_P2;Temp;Humidity;BMP_temperature;BMP_pressure;BME280_temperature;BME280_humidity;BME280_pressure;Samples;Min_cycle;Max_cycle;Signal;HPM_P1;HPM_P2
2022/07/05 04:17:29;;;;;;;;;;;25.40;99.90;;;;;;5467753;23;19922;-84
2022/07/05 04:19:56;;;;;;;;;;;25.40;99.90;;;;;;4998587;28;19928;-83
2022/07/05 04:22:23;;;;;;;;;;;25.40;99.90;;;;;;4998437;28;19964;-82
2022/07/05 04:27:33;;;;;;;;;;;25.50;99.90;;;;;;4997280;28;19964;-85
2022/07/05 04:30:00;;;;;;;;;;;25.40;99.90;;;;;;4996620;28;19957;-85
2022/07/05 04:32:28;;;;;;;;;;;25.50;99.90;;;;;;4996278;28;20281;-85
2022/07/05 04:34:55;;;;;;;;;;;25.40;99.90;;;;;;4996470;28;19927;-87
2022/07/05 04:37:21;;;;;;;;;;;25.50;99.90;;;;;;4996252;28;19921;-85
2022/07/05 04:39:48;;;;;;;;;;;25.40;99.90;;;;;;4997507;28;20012;-81
2022/07/05 04:42:15;;;;;;;;;;;25.50;99.90;;;;;;4997283;28;20016;-80
2022/07/05 04:44:42;;;;;;;;;;;25.50;99.90;;;;;;4997280;28;19965;-81
2022/07/05 04:47:08;;;;;;;;;;;25.50;99.90;;;;;;4996787;28;19929;-81
2022/07/05 04:49:36;;;;;;;;;;;25.50;99.90;;;;;;4997217;28;19926;-82
2022/07/05 04:52:03;;;;;;;;;;;25.50;99.90;;;;;;4998297;28;20383;-80
2022/07/05 04:54:30;;;;;;;;;;;25.50;99.90;;;;;;4997286;28;19927;-81
2022/07/05 04:56:56;;;;;;;;;;;25.50;99.90;;;;;;4997096;28;20012;-81
2022/07/05 04:59:23;;;;;;;;;;;25.50;99.90;;;;;;4996750;28;20377;-80
2022/07/05 05:01:50;;;;;;;;;;;25.40;99.90;;;;;;4997332;28;20337;-80
2022/07/05 05:04:16;;;;;;;;;;;25.50;99.90;;;;;;4996704;28;20365;-80
2022/07/05 05:06:44;;;;;;;;;;;25.50;99.90;;;;;;4997263;28;19968;-79
2022/07/05 05:09:11;;;;;;;;;;;25.50;99.90;;;;;;4997413;28;19921;-80
2022/07/05 05:11:37;;;;;;;;;;;25.40;99.90;;;;;;4996920;28;20012;-80
2022/07/05 05:14:04;;;;;;;;;;;25.40;99.90;;;;;;4997360;28;19967;-80
2022/07/05 05:16:31;;;;;;;;;;;25.40;99.90;;;;;;4997456;28;19972;-81
2022/07/05 05:18:57;;;;;;;;;;;25.40;99.90;;;;;;4997006;28;19928;-81
2022/07/05 05:21:24;;;;;;;;;;;25.50;99.90;;;;;;4997189;28;19961;-81
2022/07/05 05:23:52;;;;;;;;;;;25.40;99.90;;;;;;4996546;28;20401;-81
2022/07/05 05:26:19;;;;;;;;;;;25.40;99.90;;;;;;4997303;28;20016;-80
2022/07/05 05:28:45;;;;;;;;;;;25.40;99.90;;;;;;4997710;28;19964;-80
2022/07/05 05:31:12;;;;;;;;;;;25.40;99.90;;;;;;4997340;28;19972;-80
2022/07/05 05:33:39;;;;;;;;;;;25.40;99.90;;;;;;4997918;28;19921;-80
2022/07/05 05:36:06;;;;;;;;;;;25.40;99.90;;;;;;4997105;28;19928;-80
2022/07/05 05:38:33;;;;;;;;;;;25.40;99.90;;;;;;4996895;28;19922;-81
2022/07/05 05:41:01;;;;;;;;;;;25.40;99.90;;;;;;4997182;28;19928;-80
2022/07/05 05:43:28;;;;;;;;;;;25.40;99.90;;;;;;4997493;28;19921;-83
2022/07/05 05:45:54;;;;;;;;;;;25.50;99.90;;;;;;4997513;28;19921;-81
2022/07/05 05:48:21;;;;;;;;;;;25.50;99.90;;;;;;4996955;28;20012;-80
2022/07/05 05:50:48;;;;;;;;;;;25.50;99.90;;;;;;4997222;28;19922;-81
2022/07/05 05:53:15;;;;;;;;;;;25.40;99.90;;;;;;4997250;28;19940;-80
2022/07/05 05:55:42;;;;;;;;;;;25.50;99.90;;;;;;5001629;28;20012;-78
2022/07/05 05:58:13;;;;;;;;;;;25.50;99.90;;;;;;5002697;28;19928;-77
2022/07/05 06:00:41;;;;;;;;;;;25.50;99.90;;;;;;5001196;28;19969;-77
2022/07/05 06:03:08;;;;;;;;;;;25.50;99.90;;;;;;5001749;28;19957;-78
2022/07/05 06:05:36;;;;;;;;;;;25.50;99.90;;;;;;5003310;28;19932;-78
2022/07/05 06:08:03;;;;;;;;;;;25.50;99.90;;;;;;5003322;28;19922;-78
2022/07/05 06:10:31;;;;;;;;;;;25.50;99.90;;;;;;5000474;28;19929;-77
2022/07/05 06:12:59;;;;;;;;;;;25.50;99.90;;;;;;4999431;28;19972;-77
2022/07/05 06:15:28;;;;;;;;;;;25.50;99.90;;;;;;5001442;28;19925;-78
2022/07/05 06:17:55;;;;;;;;;;;25.50;99.90;;;;;;5003225;28;19930;-78
2022/07/05 06:20:23;;;;;;;;;;;25.50;99.90;;;;;;5003195;28;19929;-81
2022/07/05 06:22:51;;;;;;;;;;;25.50;99.90;;;;;;5003314;28;20357;-82
2022/07/05 06:25:18;;;;;;;;;;;25.40;99.90;;;;;;5004716;28;19922;-81
2022/07/05 06:27:47;;;;;;;;;;;25.40;99.90;;;;;;5005029;28;19929;-81
2022/07/05 06:30:15;;;;;;;;;;;25.30;99.90;;;;;;5004125;28;19922;-81
2022/07/05 06:32:45;;;;;;;;;;;25.30;99.90;;;;;;5004179;28;19957;-81
2022/07/05 06:35:12;;;;;;;;;;;25.20;99.90;;;;;;5003120;28;19922;-81
2022/07/05 06:37:43;;;;;;;;;;;25.10;99.90;;;;;;5004370;28;19961;-81
2022/07/05 06:40:11;;;;;;;;;;;25.10;99.90;;;;;;5006524;28;19921;-81
2022/07/05 06:42:38;;;;;;;;;;;25.10;99.90;;;;;;5005829;28;19981;-81
2022/07/05 06:45:05;;;;;;;;;;;25.10;99.90;;;;;;5005757;28;19927;-81
2022/07/05 06:47:33;;;;;;;;;;;25.10;99.90;;;;;;5007146;28;19921;-81
2022/07/05 06:50:02;;;;;;;;;;;25.10;99.90;;;;;;5005504;28;20039;-81
2022/07/05 06:52:29;;;;;;;;;;;25.10;99.90;;;;;;5006521;28;19925;-82
2022/07/05 06:54:56;;;;;;;;;;;25.10;99.90;;;;;;5006489;28;19921;-81
2022/07/05 06:57:24;;;;;;;;;;;25.10;99.90;;;;;;5006945;28;20262;-81
2022/07/05 06:59:51;;;;;;;;;;;25.10;99.90;;;;;;5006799;28;19921;-82
2022/07/05 07:02:18;;;;;;;;;;;25.10;99.90;;;;;;5004572;28;20308;-82
2022/07/05 07:04:46;;;;;;;;;;;25.10;99.90;;;;;;5005066;28;19925;-80
2022/07/05 07:09:57;;;;;;;;;;;25.10;99.90;;;;;;5004742;28;20188;-80
2022/07/05 07:12:24;;;;;;;;;;;25.10;99.90;;;;;;5004126;28;19921;-80
2022/07/05 07:14:51;;;;;;;;;;;25.10;99.90;;;;;;5004786;28;20415;-81
2022/07/05 07:17:18;;;;;;;;;;;25.20;99.90;;;;;;5002638;28;19972;-80
2022/07/05 07:19:45;;;;;;;;;;;25.20;99.90;;;;;;4999872;28;19932;-81
2022/07/05 07:22:11;;;;;;;;;;;25.20;99.90;;;;;;4999200;28;20437;-81
2022/07/05 07:24:40;;;;;;;;;;;25.20;99.90;;;;;;4999790;28;19921;-80
2022/07/05 07:27:07;;;;;;;;;;;25.20;99.90;;;;;;5003224;28;19929;-84
2022/07/05 07:29:35;;;;;;;;;;;25.20;99.90;;;;;;5002691;28;20028;-82
2022/07/05 07:32:03;;;;;;;;;;;25.20;99.90;;;;;;5001906;28;20008;-82
2022/07/05 07:34:29;;;;;;;;;;;25.20;99.90;;;;;;5001452;28;20024;-82
2022/07/05 07:36:56;;;;;;;;;;;25.20;99.90;;;;;;5001286;28;19922;-82
2022/07/05 07:39:23;;;;;;;;;;;25.20;99.90;;;;;;5001666;28;20008;-83
2022/07/05 07:41:51;;;;;;;;;;;25.20;99.90;;;;;;5001738;28;20015;-83
2022/07/05 07:44:18;;;;;;;;;;;25.20;99.90;;;;;;5001677;28;19922;-83
2022/07/05 07:46:45;;;;;;;;;;;25.20;99.90;;;;;;5001400;28;20016;-83
2022/07/05 07:49:13;;;;;;;;;;;25.20;99.90;;;;;;5002958;28;19943;-83
2022/07/05 07:51:40;;;;;;;;;;;25.20;99.90;;;;;;5002292;28;20334;-83
2022/07/05 07:54:07;;;;;;;;;;;25.20;99.90;;;;;;5000936;28;20377;-83
2022/07/05 07:56:33;;;;;;;;;;;25.20;99.90;;;;;;5000933;28;20397;-82
2022/07/05 07:59:01;;;;;;;;;;;25.20;99.90;;;;;;5001622;28;20356;-82
2022/07/05 08:01:28;;;;;;;;;;;25.20;99.90;;;;;;5000771;28;19921;-82
2022/07/05 08:03:55;;;;;;;;;;;25.30;99.90;;;;;;5001788;28;19977;-82
2022/07/05 08:06:21;;;;;;;;;;;25.30;99.90;;;;;;5002799;28;19974;-82
2022/07/05 08:08:48;;;;;;;;;;;25.30;99.90;;;;;;5001416;28;20028;-82
2022/07/05 08:11:15;;;;;;;;;;;25.30;99.90;;;;;;5001057;28;19965;-82
2022/07/05 08:13:42;;;;;;;;;;;25.30;99.90;;;;;;5001445;28;19953;-82
2022/07/05 08:16:10;;;;;;;;;;;25.30;99.80;;;;;;5001002;28;19976;-82
2022/07/05 08:21:34;;;;;;;;;;;25.30;99.50;;;;;;4964952;28;19917;-82
2022/07/05 08:24:02;;;;;;;;;;;25.30;99.30;;;;;;5000632;28;19921;-83
2022/07/05 08:26:30;;;;;;;;;;;25.30;99.20;;;;;;5003031;28;20012;-83
2022/07/05 08:28:58;;;;;;;;;;;25.30;99.00;;;;;;5004126;28;19929;-83
2022/07/05 08:31:26;;;;;;;;;;;25.30;98.80;;;;;;5003682;28;19922;-83
2022/07/05 08:33:54;;;;;;;;;;;25.30;98.70;;;;;;5004471;28;19921;-83
2022/07/05 08:36:21;;;;;;;;;;;25.30;98.50;;;;;;5004043;28;20403;-82
2022/07/05 08:38:48;;;;;;;;;;;25.30;98.40;;;;;;5004484;28;19928;-82
2022/07/05 08:41:18;;;;;;;;;;;25.30;98.20;;;;;;5003187;28;19928;-83
2022/07/05 08:43:46;;;;;;;;;;;25.30;98.00;;;;;;5004290;28;19964;-83
2022/07/05 08:46:14;;;;;;;;;;;25.30;97.80;;;;;;5003033;28;19961;-83
2022/07/05 08:48:44;;;;;;;;;;;25.30;97.80;;;;;;5003281;28;19926;-82
2022/07/05 08:51:12;;;;;;;;;;;25.30;97.70;;;;;;5003886;28;19929;-82
2022/07/05 08:53:40;;;;;;;;;;;25.30;97.50;;;;;;5003463;28;19964;-82
2022/07/05 08:56:09;;;;;;;;;;;25.30;97.30;;;;;;5004653;28;19928;-82
2022/07/05 08:58:36;;;;;;;;;;;25.30;97.20;;;;;;5002931;28;20016;-82
2022/07/05 09:01:03;;;;;;;;;;;25.30;97.00;;;;;;5003475;28;20437;-83
2022/07/05 09:03:32;;;;;;;;;;;25.30;96.80;;;;;;5004038;28;19928;-83
2022/07/05 09:06:01;;;;;;;;;;;25.30;96.60;;;;;;5002514;28;19953;-83
2022/07/05 09:08:32;;;;;;;;;;;25.30;96.50;;;;;;5003693;28;19965;-82
2022/07/05 09:10:59;;;;;;;;;;;25.30;96.30;;;;;;5002595;28;19922;-83
2022/07/05 09:13:26;;;;;;;;;;;25.30;96.10;;;;;;5003865;28;19981;-83
2022/07/05 09:15:56;;;;;;;;;;;25.30;96.00;;;;;;5003662;28;19945;-83
2022/07/05 09:18:42;;;;;;;;;;;25.30;95.70;;;;;;5003754;28;19922;-83
2022/07/05 09:21:20;;;;;;;;;;;25.30;95.50;;;;;;5003639;28;20332;-82
2022/07/05 09:23:55;;;;;;;;;;;25.30;95.40;;;;;;5003780;28;19922;-82
2022/07/05 09:26:22;;;;;;;;;;;25.30;95.40;;;;;;5002202;28;19921;-82
2022/07/05 09:28:57;;;;;;;;;;;25.30;95.10;;;;;;5002596;28;19928;-83
2022/07/05 09:31:28;;;;;;;;;;;25.30;94.90;;;;;;5003381;28;19922;-83
2022/07/05 09:33:55;;;;;;;;;;;25.30;94.70;;;;;;5002346;28;19922;-83
2022/07/05 09:36:25;;;;;;;;;;;25.30;94.50;;;;;;5002206;28;19928;-82
2022/07/05 09:38:52;;;;;;;;;;;25.30;94.30;;;;;;5002477;28;20345;-82
2022/07/05 09:41:19;;;;;;;;;;;25.30;94.10;;;;;;5002764;28;20004;-83
2022/07/05 09:43:47;;;;;;;;;;;25.30;93.90;;;;;;5001404;28;19922;-83
2022/07/05 09:46:14;;;;;;;;;;;25.30;93.80;;;;;;5003125;28;19921;-83
2022/07/05 09:48:51;;;;;;;;;;;25.30;93.60;;;;;;5002704;28;20396;-83
2022/07/05 09:51:18;;;;;;;;;;;25.30;93.40;;;;;;5003639;28;19922;-83
2022/07/05 09:53:48;;;;;;;;;;;25.30;93.30;;;;;;5003216;28;19922;-83
2022/07/05 09:56:15;;;;;;;;;;;25.30;93.20;;;;;;5001135;28;20001;-83
2022/07/05 09:58:42;;;;;;;;;;;25.30;92.90;;;;;;4997122;28;20004;-83
2022/07/05 10:01:23;;;;;;;;;;;25.30;92.90;;;;;;4996863;28;20305;-83
2022/07/05 10:03:54;;;;;;;;;;;25.30;92.90;;;;;;4996434;28;19922;-83
2022/07/05 10:06:20;;;;;;;;;;;25.30;92.70;;;;;;4996594;28;19921;-83
2022/07/05 10:08:49;;;;;;;;;;;25.30;92.50;;;;;;4996414;28;20020;-83
2022/07/05 10:11:16;;;;;;;;;;;25.40;92.40;;;;;;4998646;28;19929;-83
2022/07/05 10:13:44;;;;;;;;;;;25.30;92.30;;;;;;5000943;28;20012;-83
2022/07/05 10:16:11;;;;;;;;;;;25.40;92.20;;;;;;5000237;28;20349;-83
2022/07/05 10:18:38;;;;;;;;;;;25.40;92.10;;;;;;5000191;28;20440;-83
2022/07/05 10:21:06;;;;;;;;;;;25.40;92.00;;;;;;4999762;28;19928;-81
2022/07/05 10:23:33;;;;;;;;;;;25.40;92.00;;;;;;4999929;28;19928;-82
2022/07/05 10:26:01;;;;;;;;;;;25.40;92.20;;;;;;5000418;28;19929;-83
2022/07/05 10:28:28;;;;;;;;;;;25.40;91.80;;;;;;5000495;28;19926;-83
2022/07/05 10:30:56;;;;;;;;;;;25.40;91.70;;;;;;5000654;28;19928;-83
2022/07/05 10:33:26;;;;;;;;;;;25.40;91.60;;;;;;5001107;28;19922;-83
2022/07/05 10:35:53;;;;;;;;;;;25.40;91.50;;;;;;4999923;28;19922;-83
2022/07/05 10:38:20;;;;;;;;;;;25.40;91.40;;;;;;4999205;28;19928;-83
2022/07/05 10:40:48;;;;;;;;;;;25.40;91.30;;;;;;4999669;28;19961;-82
2022/07/05 10:43:17;;;;;;;;;;;25.40;90.90;;;;;;4999502;28;19922;-83
2022/07/05 10:45:47;;;;;;;;;;;25.30;90.50;;;;;;4999266;28;19922;-82
2022/07/05 10:48:15;;;;;;;;;;;25.30;90.20;;;;;;4999081;28;20465;-82
2022/07/05 10:50:46;;;;;;;;;;;25.30;89.80;;;;;;5001063;28;19922;-83
2022/07/05 10:53:13;;;;;;;;;;;25.30;89.10;;;;;;4999695;28;20285;-83
2022/07/05 10:55:56;;;;;;;;;;;25.20;88.10;;;;;;4999312;28;20071;-83
2022/07/05 10:58:31;;;;;;;;;;;25.20;87.90;;;;;;4998787;28;20004;-83
2022/07/05 11:01:16;;;;;;;;;;;25.20;87.20;;;;;;4998206;28;19921;-84
2022/07/05 11:03:45;;;;;;;;;;;25.20;86.30;;;;;;4998255;28;20016;-86
2022/07/05 11:06:19;;;;;;;;;;;25.10;85.20;;;;;;4998495;28;19922;-86
2022/07/05 11:09:19;;;;;;;;;;;25.10;84.90;;;;;;4998460;28;19961;-86
2022/07/05 11:11:47;;;;;;;;;;;25.10;84.50;;;;;;4937958;29;20017;-86
2022/07/05 11:14:31;;;;;;;;;;;25.10;83.80;;;;;;4938208;29;20017;-86
2022/07/05 11:17:22;;;;;;;;;;;25.20;83.50;;;;;;4973599;28;19932;-85
2022/07/05 11:20:23;;;;;;;;;;;25.20;83.00;;;;;;4996371;28;19929;-85
2022/07/05 11:23:03;;;;;;;;;;;25.20;82.50;;;;;;4941376;29;19930;-85
2022/07/05 11:25:31;;;;;;;;;;;25.20;82.10;;;;;;4994406;28;20020;-85
2022/07/05 11:28:01;;;;;;;;;;;25.20;81.70;;;;;;4997834;28;19928;-87
2022/07/05 11:30:29;;;;;;;;;;;25.20;81.40;;;;;;4998660;28;19968;-86
2022/07/05 11:32:59;;;;;;;;;;;25.30;81.10;;;;;;4997190;28;19921;-86
2022/07/05 11:35:32;;;;;;;;;;;25.20;80.80;;;;;;4997283;28;20113;-83
2022/07/05 11:38:04;;;;;;;;;;;25.30;80.50;;;;;;4997447;28;19933;-83
2022/07/05 11:40:32;;;;;;;;;;;25.30;80.10;;;;;;4997465;28;19932;-83
2022/07/05 11:42:59;;;;;;;;;;;25.30;79.50;;;;;;4997233;28;20401;-83
2022/07/05 11:45:26;;;;;;;;;;;25.30;79.30;;;;;;4997450;28;19928;-83
2022/07/05 11:47:57;;;;;;;;;;;25.30;79.20;;;;;;4997055;28;20288;-83
2022/07/05 11:50:27;;;;;;;;;;;25.30;78.80;;;;;;4997224;28;20328;-83
2022/07/05 11:52:54;;;;;;;;;;;25.30;78.30;;;;;;4996773;28;19969;-83
2022/07/05 11:55:21;;;;;;;;;;;25.30;78.00;;;;;;4996928;28;19922;-83
2022/07/05 11:57:51;;;;;;;;;;;25.30;77.60;;;;;;4996762;28;20508;-83
2022/07/05 12:00:28;;;;;;;;;;;25.30;77.30;;;;;;4996912;28;19928;-83
2022/07/05 12:02:56;;;;;;;;;;;25.30;77.20;;;;;;4996967;28;19922;-83
2022/07/05 12:05:23;;;;;;;;;;;25.30;76.80;;;;;;4996861;28;19922;-83
2022/07/05 12:07:50;;;;;;;;;;;25.30;76.40;;;;;;4996818;28;19944;-83
2022/07/05 12:13:04;;;;;;;;;;;25.30;75.60;;;;;;4996906;28;20447;-83
2022/07/05 12:15:31;;;;;;;;;;;25.30;75.20;;;;;;4996608;28;19944;-83
2022/07/05 12:18:03;;;;;;;;;;;25.30;74.80;;;;;;4996513;28;19929;-83
2022/07/05 12:20:30;;;;;;;;;;;25.30;74.30;;;;;;4996563;28;19922;-83
2022/07/05 12:22:58;;;;;;;;;;;25.20;73.80;;;;;;4996848;28;19928;-83
2022/07/05 12:25:25;;;;;;;;;;;25.30;73.40;;;;;;4996918;28;19928;-83
2022/07/05 12:27:53;;;;;;;;;;;25.30;73.40;;;;;;4996219;28;20365;-87
2022/07/05 12:30:20;;;;;;;;;;;25.30;73.40;;;;;;4996168;28;20036;-87
2022/07/05 12:32:57;;;;;;;;;;;25.30;73.20;;;;;;4996248;28;19921;-87
2022/07/05 12:35:31;;;;;;;;;;;25.30;72.90;;;;;;4995047;28;19929;-87
2022/07/05 12:37:58;;;;;;;;;;;25.30;72.60;;;;;;4996023;28;19921;-87
2022/07/05 12:40:24;;;;;;;;;;;25.30;72.40;;;;;;4995705;28;20016;-87
2022/07/05 12:43:01;;;;;;;;;;;25.30;72.10;;;;;;4996004;28;20293;-87
2022/07/05 12:45:28;;;;;;;;;;;25.30;71.90;;;;;;4995776;28;19921;-87
2022/07/05 12:47:55;;;;;;;;;;;25.30;71.70;;;;;;4995856;28;19922;-87
2022/07/05 12:50:23;;;;;;;;;;;25.40;71.70;;;;;;4995687;28;19964;-87
2022/07/05 12:58:01;;;;;;;;;;;25.40;71.40;;;;;;4995849;28;19969;-87
2022/07/05 12:58:48;;;;;;;;;;;25.40;71.00;;;;;;5133476;27;19934;-87
2022/07/05 13:01:21;;;;;;;;;;;25.40;70.90;;;;;;5136985;28;20399;-88
2022/07/05 13:03:59;;;;;;;;;;;25.40;70.60;;;;;;5136680;28;19923;-88
2022/07/05 13:06:40;;;;;;;;;;;25.40;70.40;;;;;;5133768;28;19984;-88
2022/07/05 13:09:06;;;;;;;;;;;25.40;70.30;;;;;;5133104;28;19930;-89
2022/07/05 13:11:34;;;;;;;;;;;25.40;70.00;;;;;;5132841;28;19987;-89
2022/07/05 13:14:01;;;;;;;;;;;25.40;69.90;;;;;;5132810;28;19930;-87
2022/07/05 13:16:28;;;;;;;;;;;25.40;70.40;;;;;;5132124;28;19975;-87
2022/07/05 13:18:54;;;;;;;;;;;25.40;69.50;;;;;;5132028;28;20339;-87
2022/07/05 13:21:21;;;;;;;;;;;25.40;69.50;;;;;;5131962;28;20361;-87
2022/07/05 13:23:48;;;;;;;;;;;25.40;69.30;;;;;;5131924;28;20358;-86
2022/07/05 13:26:14;;;;;;;;;;;25.40;69.10;;;;;;5132120;28;19974;-87
2022/07/05 13:28:42;;;;;;;;;;;25.40;69.00;;;;;;5132155;28;20018;-86
2022/07/05 13:31:11;;;;;;;;;;;25.40;68.80;;;;;;5133155;28;20012;-86
2022/07/05 13:33:38;;;;;;;;;;;25.40;68.70;;;;;;5132581;28;20044;-86
2022/07/05 13:36:05;;;;;;;;;;;25.40;68.60;;;;;;5132158;28;19978;-86
2022/07/05 13:38:31;;;;;;;;;;;25.40;68.50;;;;;;5132836;28;19924;-85
2022/07/05 13:40:58;;;;;;;;;;;25.40;68.40;;;;;;5132732;28;20435;-86
2022/07/05 13:43:25;;;;;;;;;;;25.40;68.30;;;;;;5131958;28;19923;-86
2022/07/05 13:45:53;;;;;;;;;;;25.40;68.10;;;;;;5131832;28;20019;-87
2022/07/05 13:48:19;;;;;;;;;;;25.50;68.10;;;;;;5132206;28;20006;-87
2022/07/05 13:50:46;;;;;;;;;;;25.40;67.90;;;;;;5132053;28;19924;-87
2022/07/05 13:53:13;;;;;;;;;;;25.50;67.90;;;;;;5132019;28;20375;-87
2022/07/05 13:55:39;;;;;;;;;;;25.50;67.80;;;;;;5131337;28;19930;-87
2022/07/05 13:58:06;;;;;;;;;;;25.50;67.70;;;;;;5131718;28;19975;-87
2022/07/05 14:00:33;;;;;;;;;;;25.50;67.60;;;;;;5131995;28;19969;-87
2022/07/05 14:03:01;;;;;;;;;;;25.50;67.50;;;;;;5132887;28;20006;-87
2022/07/05 14:05:27;;;;;;;;;;;25.50;67.50;;;;;;5129783;28;20076;-85
2022/07/05 14:07:54;;;;;;;;;;;25.50;67.50;;;;;;5121788;28;19969;-85
2022/07/05 14:10:21;;;;;;;;;;;25.50;67.50;;;;;;5122035;28;20006;-85
2022/07/05 14:12:47;;;;;;;;;;;25.50;67.50;;;;;;5123427;28;20398;-85
2022/07/05 14:15:14;;;;;;;;;;;25.50;67.50;;;;;;5123176;28;20018;-85
2022/07/05 14:17:41;;;;;;;;;;;25.50;67.40;;;;;;5123494;28;19923;-86
2022/07/05 14:20:10;;;;;;;;;;;25.50;67.20;;;;;;5124210;28;19936;-86
2022/07/05 14:22:37;;;;;;;;;;;25.50;67.20;;;;;;5123468;28;20132;-85
2022/07/05 14:25:05;;;;;;;;;;;25.60;67.10;;;;;;5123305;28;19971;-85
2022/07/05 14:27:31;;;;;;;;;;;25.50;67.00;;;;;;5119753;28;19954;-86
2022/07/05 14:29:58;;;;;;;;;;;25.50;66.90;;;;;;5120388;28;20022;-86
2022/07/05 14:32:25;;;;;;;;;;;25.50;66.90;;;;;;5118671;28;19930;-86
2022/07/05 14:34:51;;;;;;;;;;;25.50;66.70;;;;;;5117832;28;19930;-86
2022/07/05 14:37:20;;;;;;;;;;;25.60;66.70;;;;;;5118957;28;20019;-86
2022/07/05 14:39:47;;;;;;;;;;;25.60;66.70;;;;;;5117931;28;19927;-86
2022/07/05 14:42:14;;;;;;;;;;;25.50;66.60;;;;;;5117387;28;20014;-86
2022/07/05 14:44:40;;;;;;;;;;;25.60;66.60;;;;;;5117333;28;20438;-86
2022/07/05 14:47:07;;;;;;;;;;;25.50;66.50;;;;;;5117744;28;19971;-86
2022/07/05 14:49:34;;;;;;;;;;;25.60;66.60;;;;;;5119147;28;20015;-85
2022/07/05 14:52:00;;;;;;;;;;;25.50;66.50;;;;;;5122597;28;20019;-85
2022/07/05 14:54:28;;;;;;;;;;;25.60;66.50;;;;;;5121913;28;19977;-85
2022/07/05 14:56:55;;;;;;;;;;;25.50;66.40;;;;;;5121368;28;19930;-85
2022/07/05 14:59:22;;;;;;;;;;;25.60;66.50;;;;;;5120436;28;20336;-85
2022/07/05 15:01:49;;;;;;;;;;;25.60;66.40;;;;;;5126755;28;19928;-85
2022/07/05 15:04:16;;;;;;;;;;;25.60;66.40;;;;;;5127866;28;19924;-85
2022/07/05 15:06:43;;;;;;;;;;;25.60;66.40;;;;;;5127476;28;19923;-86
2022/07/05 15:09:10;;;;;;;;;;;25.60;66.40;;;;;;5128029;28;19923;-86
2022/07/05 15:11:39;;;;;;;;;;;25.60;66.40;;;;;;5127509;28;19930;-85
2022/07/05 15:14:06;;;;;;;;;;;25.60;66.40;;;;;;5126618;28;19930;-85
2022/07/05 15:16:34;;;;;;;;;;;25.50;66.40;;;;;;5127404;28;19946;-84
2022/07/05 15:19:02;;;;;;;;;;;25.60;66.30;;;;;;5126835;28;20402;-85
2022/07/05 15:21:29;;;;;;;;;;;25.60;66.40;;;;;;5123868;28;19928;-86
2022/07/05 15:23:58;;;;;;;;;;;25.60;66.30;;;;;;5119011;28;19924;-86
2022/07/05 15:26:36;;;;;;;;;;;25.60;66.30;;;;;;5125346;28;20030;-88
2022/07/05 15:29:05;;;;;;;;;;;25.60;66.30;;;;;;5126206;28;19934;-87
2022/07/05 15:31:33;;;;;;;;;;;25.50;66.20;;;;;;5126004;28;19963;-85
2022/07/05 15:34:00;;;;;;;;;;;25.60;66.40;;;;;;5127152;28;20329;-86
2022/07/05 15:36:31;;;;;;;;;;;25.60;66.40;;;;;;5126849;28;19977;-86
2022/07/05 15:39:00;;;;;;;;;;;25.60;66.40;;;;;;5126116;28;19927;-85
2022/07/05 15:41:28;;;;;;;;;;;25.60;66.50;;;;;;5126068;28;19930;-85
2022/07/05 15:43:55;;;;;;;;;;;25.60;66.60;;;;;;5125200;28;19973;-84
2022/07/05 15:46:23;;;;;;;;;;;25.60;66.60;;;;;;5122247;28;19945;-85
2022/07/05 15:48:50;;;;;;;;;;;25.60;66.70;;;;;;5119158;28;19935;-83
2022/07/05 15:51:17;;;;;;;;;;;25.60;66.70;;;;;;5117955;28;19979;-83
2022/07/05 15:53:44;;;;;;;;;;;25.60;66.70;;;;;;5117928;28;20394;-82
2022/07/05 15:56:11;;;;;;;;;;;;;;;;;;5119995;28;19931;-84
2022/07/05 15:58:39;;;;;;;;;;;25.60;66.20;;;;;;5120928;28;19924;-83
2022/07/05 16:01:06;;;;;;;;;;;25.60;66.80;;;;;;5121111;28;19930;-84
2022/07/05 16:03:37;;;;;;;;;;;25.60;66.80;;;;;;5120415;28;19974;-84
2022/07/05 16:06:04;;;;;;;;;;;25.60;66.90;;;;;;5121615;28;19924;-84
2022/07/05 16:08:30;;;;;;;;;;;25.60;67.10;;;;;;5120986;28;20418;-84
2022/07/05 16:10:57;;;;;;;;;;;25.60;67.30;;;;;;5123492;28;19924;-84
2022/07/05 16:13:24;;;;;;;;;;;25.60;67.60;;;;;;5122135;28;19924;-84
2022/07/05 16:18:37;;;;;;;;;;;25.60;67.60;;;;;;5121285;28;19926;-84
2022/07/05 16:21:04;;;;;;;;;;;25.60;67.60;;;;;;5118246;28;20358;-84
2022/07/05 16:23:31;;;;;;;;;;;25.60;67.60;;;;;;5119789;28;19923;-83
2022/07/05 16:25:59;;;;;;;;;;;25.70;67.80;;;;;;5119656;28;19924;-84
2022/07/05 16:28:26;;;;;;;;;;;25.70;68.00;;;;;;5118780;28;19930;-82
2022/07/05 16:30:52;;;;;;;;;;;25.70;68.20;;;;;;5117064;28;20358;-82
2022/07/05 16:33:19;;;;;;;;;;;25.70;68.30;;;;;;5118149;28;19959;-83
2022/07/05 16:35:47;;;;;;;;;;;25.70;68.40;;;;;;5119138;28;19935;-84
2022/07/05 16:38:14;;;;;;;;;;;25.70;68.50;;;;;;5119982;28;20022;-84
2022/07/05 16:40:41;;;;;;;;;;;25.70;68.60;;;;;;5117341;28;19928;-86
2022/07/05 16:43:08;;;;;;;;;;;25.70;68.70;;;;;;5118036;28;19963;-86
2022/07/05 16:45:34;;;;;;;;;;;25.70;68.80;;;;;;5117459;28;20010;-86
2022/07/05 16:48:01;;;;;;;;;;;25.60;68.80;;;;;;5117182;28;20014;-86
2022/07/05 16:50:29;;;;;;;;;;;25.70;68.90;;;;;;5117876;28;19973;-86
2022/07/05 16:52:57;;;;;;;;;;;25.60;68.90;;;;;;5117491;28;20131;-85
2022/07/05 16:55:24;;;;;;;;;;;25.60;69.00;;;;;;5116424;28;20033;-85
2022/07/05 16:57:51;;;;;;;;;;;25.60;69.10;;;;;;5116190;28;20010;-86
2022/07/05 17:00:18;;;;;;;;;;;25.60;69.10;;;;;;5117828;28;19974;-86
2022/07/05 17:02:47;;;;;;;;;;;25.60;69.20;;;;;;5118116;28;19963;-85
2022/07/05 17:05:13;;;;;;;;;;;25.60;69.30;;;;;;5119592;28;19970;-87
2022/07/05 17:07:40;;;;;;;;;;;25.70;69.40;;;;;;5119020;28;19931;-85
2022/07/05 17:10:08;;;;;;;;;;;25.60;69.40;;;;;;5118258;28;20012;-86
2022/07/05 17:12:35;;;;;;;;;;;25.60;69.50;;;;;;5115140;28;20014;-86
2022/07/05 17:15:02;;;;;;;;;;;25.60;69.50;;;;;;5115132;28;19930;-85
2022/07/05 17:17:28;;;;;;;;;;;25.60;69.70;;;;;;5114868;28;20011;-87
2022/07/05 17:19:55;;;;;;;;;;;25.60;69.70;;;;;;5118774;28;19995;-86
2022/07/05 17:22:22;;;;;;;;;;;25.60;69.80;;;;;;5117462;28;19987;-86
2022/07/05 17:24:48;;;;;;;;;;;25.60;69.90;;;;;;5116355;28;20011;-86
2022/07/05 17:27:16;;;;;;;;;;;25.60;70.00;;;;;;5117029;28;20461;-86
2022/07/05 17:29:43;;;;;;;;;;;25.60;70.10;;;;;;5118776;28;20391;-86
2022/07/05 17:32:10;;;;;;;;;;;25.60;70.10;;;;;;5118627;28;20037;-86
2022/07/05 17:34:36;;;;;;;;;;;25.60;70.20;;;;;;5118967;28;20011;-86
2022/07/05 17:37:03;;;;;;;;;;;25.60;70.20;;;;;;5120105;28;20035;-86
2022/07/05 17:39:30;;;;;;;;;;;25.60;70.20;;;;;;5124557;28;19995;-85
2022/07/05 17:41:57;;;;;;;;;;;25.60;70.30;;;;;;5127386;28;19924;-84
2022/07/05 17:44:25;;;;;;;;;;;25.60;70.30;;;;;;5132205;28;19923;-86
2022/07/05 17:46:51;;;;;;;;;;;25.60;70.40;;;;;;5129367;28;19924;-84
2022/07/05 17:49:18;;;;;;;;;;;25.60;70.40;;;;;;5129646;28;19970;-85
2022/07/05 17:51:45;;;;;;;;;;;25.60;70.40;;;;;;5132946;28;19970;-86
2022/07/05 17:54:13;;;;;;;;;;;25.60;70.50;;;;;;5131102;28;19931;-85
2022/07/05 17:56:39;;;;;;;;;;;25.60;70.50;;;;;;5129694;28;19931;-84
2022/07/05 17:59:06;;;;;;;;;;;25.60;70.60;;;;;;5129482;28;20377;-85
2022/07/05 18:01:34;;;;;;;;;;;25.60;70.60;;;;;;5131620;28;19959;-86
2022/07/05 18:04:01;;;;;;;;;;;25.60;70.60;;;;;;5129426;28;19970;-85
2022/07/05 18:06:28;;;;;;;;;;;25.60;70.60;;;;;;5128046;28;19924;-85
2022/07/05 18:08:54;;;;;;;;;;;25.60;70.60;;;;;;5126215;28;20022;-84
2022/07/05 18:11:21;;;;;;;;;;;25.60;70.60;;;;;;5127709;28;19947;-85
2022/07/05 18:13:48;;;;;;;;;;;25.50;70.60;;;;;;5125403;28;20248;-87
2022/07/05 18:16:15;;;;;;;;;;;25.60;70.60;;;;;;5124562;28;19979;-86
2022/07/05 18:18:45;;;;;;;;;;;25.50;70.60;;;;;;5125433;28;19930;-85
2022/07/05 18:21:12;;;;;;;;;;;25.50;70.60;;;;;;5127511;28;19924;-86
2022/07/05 18:23:39;;;;;;;;;;;25.50;70.60;;;;;;5118104;28;20010;-87
2022/07/05 18:26:05;;;;;;;;;;;25.60;70.60;;;;;;5123445;28;20020;-86
2022/07/05 18:28:32;;;;;;;;;;;25.50;70.60;;;;;;5126430;28;19924;-86
2022/07/05 18:30:59;;;;;;;;;;;25.50;70.50;;;;;;5126147;28;20002;-86
2022/07/05 18:33:25;;;;;;;;;;;25.50;70.50;;;;;;5127953;28;19959;-86
2022/07/05 18:35:53;;;;;;;;;;;25.50;70.50;;;;;;5127380;28;19963;-87
2022/07/05 18:38:20;;;;;;;;;;;25.50;70.40;;;;;;5122856;28;19991;-87
2022/07/05 18:40:47;;;;;;;;;;;25.50;70.40;;;;;;5121366;28;20104;-87
2022/07/05 18:43:13;;;;;;;;;;;25.50;70.30;;;;;;5124312;28;19991;-86
2022/07/05 18:45:41;;;;;;;;;;;25.50;70.30;;;;;;5123825;28;19924;-86
2022/07/05 18:48:10;;;;;;;;;;;25.50;70.30;;;;;;5120563;27;19969;-87
2022/07/05 18:50:38;;;;;;;;;;;25.50;70.20;;;;;;5118228;28;20022;-87
2022/07/05 18:53:07;;;;;;;;;;;25.50;70.20;;;;;;5119759;28;19924;-86
2022/07/05 18:55:33;;;;;;;;;;;25.50;70.20;;;;;;5117357;28;20010;-88
2022/07/05 18:58:00;;;;;;;;;;;25.40;70.20;;;;;;5117073;28;19978;-88